sensor_id;sensor_type;location;lat;lon;timestamp;P1;durP1;ratioP1;P2;durP2;ratioP2
12910;SDS011;6523;49.758;6.120;2023-07-16T00:01:51;4.20;;;1.80;;
12910;SDS011;6523;49.758;6.120;2023-07-16T00:04:17;4.23;;;2.10;;
12910;SDS011;6523;49.758;6.120;2023-07-16T00:06:42;2.23;;;1.67;;
12910;SDS011;6523;49.758;6.120;2023-07-16T00:09:08;6.60;;;2.30;;
12910;SDS011;6523;49.758;6.120;2023-07-16T00:11:33;2.83;;;2.23;;
12910;SDS011;6523;49.758;6.120;2023-07-16T00:13:59;4.03;;;1.97;;
12910;SDS011;6523;49.758;6.120;2023-07-16T00:16:26;3.50;;;1.87;;
12910;SDS011;6523;49.758;6.120;2023-07-16T00:18:52;3.23;;;1.90;;
12910;SDS011;6523;49.758;6.120;2023-07-16T00:21:18;4.03;;;2.00;;
12910;SDS011;6523;49.758;6.120;2023-07-16T00:23:43;6.17;;;2.73;;
12910;SDS011;6523;49.758;6.120;2023-07-16T00:26:09;3.63;;;1.90;;
12910;SDS011;6523;49.758;6.120;2023-07-16T00:28:34;4.17;;;1.90;;
12910;SDS011;6523;49.758;6.120;2023-07-16T00:31:00;3.60;;;2.07;;
12910;SDS011;6523;49.758;6.120;2023-07-16T00:33:26;2.63;;;2.00;;
12910;SDS011;6523;49.758;6.120;2023-07-16T00:35:52;6.07;;;2.17;;
12910;SDS011;6523;49.758;6.120;2023-07-16T00:38:17;2.83;;;2.10;;
12910;SDS011;6523;49.758;6.120;2023-07-16T00:40:43;4.47;;;2.50;;
12910;SDS011;6523;49.758;6.120;2023-07-16T00:43:09;3.53;;;1.93;;
12910;SDS011;6523;49.758;6.120;2023-07-16T00:45:35;7.17;;;2.20;;
12910;SDS011;6523;49.758;6.120;2023-07-16T00:48:03;3.93;;;2.00;;
12910;SDS011;6523;49.758;6.120;2023-07-16T00:50:30;6.03;;;2.03;;
12910;SDS011;6523;49.758;6.120;2023-07-16T00:52:59;2.57;;;2.20;;
12910;SDS011;6523;49.758;6.120;2023-07-16T00:55:29;2.97;;;1.80;;
12910;SDS011;6523;49.758;6.120;2023-07-16T00:57:56;4.50;;;2.27;;
12910;SDS011;6523;49.758;6.120;2023-07-16T01:00:30;2.63;;;1.80;;
12910;SDS011;6523;49.758;6.120;2023-07-16T01:02:56;5.13;;;2.10;;
12910;SDS011;6523;49.758;6.120;2023-07-16T01:05:22;4.70;;;2.00;;
12910;SDS011;6523;49.758;6.120;2023-07-16T01:07:55;7.63;;;2.40;;
12910;SDS011;6523;49.758;6.120;2023-07-16T01:10:25;4.37;;;2.10;;
12910;SDS011;6523;49.758;6.120;2023-07-16T01:12:53;6.10;;;2.43;;
12910;SDS011;6523;49.758;6.120;2023-07-16T01:15:20;3.93;;;2.20;;
12910;SDS011;6523;49.758;6.120;2023-07-16T01:17:45;5.43;;;2.10;;
12910;SDS011;6523;49.758;6.120;2023-07-16T01:20:11;4.57;;;2.70;;
12910;SDS011;6523;49.758;6.120;2023-07-16T01:22:57;5.60;;;2.17;;
12910;SDS011;6523;49.758;6.120;2023-07-16T01:25:54;4.47;;;2.37;;
12910;SDS011;6523;49.758;6.120;2023-07-16T01:31:17;3.53;;;2.00;;
12910;SDS011;6523;49.758;6.120;2023-07-16T01:33:43;4.37;;;1.83;;
12910;SDS011;6523;49.758;6.120;2023-07-16T01:36:10;4.67;;;2.33;;
12910;SDS011;6523;49.758;6.120;2023-07-16T01:38:36;6.27;;;2.17;;
12910;SDS011;6523;49.758;6.120;2023-07-16T01:41:02;5.00;;;2.17;;
12910;SDS011;6523;49.758;6.120;2023-07-16T01:43:27;2.87;;;1.83;;
12910;SDS011;6523;49.758;6.120;2023-07-16T01:45:53;3.63;;;2.10;;
12910;SDS011;6523;49.758;6.120;2023-07-16T01:51:01;3.03;;;1.87;;
12910;SDS011;6523;49.758;6.120;2023-07-16T01:53:27;5.20;;;2.17;;
12910;SDS011;6523;49.758;6.120;2023-07-16T01:55:52;7.93;;;2.57;;
12910;SDS011;6523;49.758;6.120;2023-07-16T01:58:18;6.53;;;2.03;;
12910;SDS011;6523;49.758;6.120;2023-07-16T02:00:44;4.43;;;2.20;;
12910;SDS011;6523;49.758;6.120;2023-07-16T02:03:10;5.63;;;1.70;;
12910;SDS011;6523;49.758;6.120;2023-07-16T02:05:36;6.70;;;2.27;;
12910;SDS011;6523;49.758;6.120;2023-07-16T02:08:01;7.67;;;2.10;;
12910;SDS011;6523;49.758;6.120;2023-07-16T02:10:27;4.87;;;1.80;;
12910;SDS011;6523;49.758;6.120;2023-07-16T02:12:53;3.53;;;1.60;;
12910;SDS011;6523;49.758;6.120;2023-07-16T02:15:18;3.57;;;1.93;;
12910;SDS011;6523;49.758;6.120;2023-07-16T02:17:44;6.73;;;2.90;;
12910;SDS011;6523;49.758;6.120;2023-07-16T02:20:10;6.17;;;1.80;;
12910;SDS011;6523;49.758;6.120;2023-07-16T02:22:36;4.60;;;2.20;;
12910;SDS011;6523;49.758;6.120;2023-07-16T02:25:02;7.70;;;2.07;;
12910;SDS011;6523;49.758;6.120;2023-07-16T02:27:28;4.63;;;1.97;;
12910;SDS011;6523;49.758;6.120;2023-07-16T02:29:54;2.73;;;1.73;;
12910;SDS011;6523;49.758;6.120;2023-07-16T02:32:19;4.70;;;1.90;;
12910;SDS011;6523;49.758;6.120;2023-07-16T02:34:45;3.73;;;1.83;;
12910;SDS011;6523;49.758;6.120;2023-07-16T02:37:10;4.77;;;1.80;;
12910;SDS011;6523;49.758;6.120;2023-07-16T02:39:38;6.77;;;2.33;;
12910;SDS011;6523;49.758;6.120;2023-07-16T02:42:04;5.70;;;2.20;;
12910;SDS011;6523;49.758;6.120;2023-07-16T02:44:30;4.53;;;2.37;;
12910;SDS011;6523;49.758;6.120;2023-07-16T02:46:55;4.80;;;2.10;;
12910;SDS011;6523;49.758;6.120;2023-07-16T02:49:21;5.37;;;2.00;;
12910;SDS011;6523;49.758;6.120;2023-07-16T02:51:46;5.00;;;1.97;;
12910;SDS011;6523;49.758;6.120;2023-07-16T02:54:12;4.30;;;2.63;;
12910;SDS011;6523;49.758;6.120;2023-07-16T02:56:37;5.13;;;1.70;;
12910;SDS011;6523;49.758;6.120;2023-07-16T02:59:03;4.03;;;2.27;;
12910;SDS011;6523;49.758;6.120;2023-07-16T03:01:29;4.63;;;2.17;;
12910;SDS011;6523;49.758;6.120;2023-07-16T03:03:54;4.47;;;2.30;;
12910;SDS011;6523;49.758;6.120;2023-07-16T03:06:20;5.20;;;2.20;;
12910;SDS011;6523;49.758;6.120;2023-07-16T03:08:45;2.53;;;2.00;;
12910;SDS011;6523;49.758;6.120;2023-07-16T03:11:11;6.70;;;2.40;;
12910;SDS011;6523;49.758;6.120;2023-07-16T03:13:37;3.87;;;2.00;;
12910;SDS011;6523;49.758;6.120;2023-07-16T03:16:02;5.03;;;1.90;;
12910;SDS011;6523;49.758;6.120;2023-07-16T03:18:29;8.13;;;2.20;;
12910;SDS011;6523;49.758;6.120;2023-07-16T03:20:55;7.27;;;2.30;;
12910;SDS011;6523;49.758;6.120;2023-07-16T03:23:21;4.40;;;2.67;;
12910;SDS011;6523;49.758;6.120;2023-07-16T03:25:47;5.20;;;2.00;;
12910;SDS011;6523;49.758;6.120;2023-07-16T03:28:13;6.93;;;2.37;;
12910;SDS011;6523;49.758;6.120;2023-07-16T03:30:38;5.03;;;2.10;;
12910;SDS011;6523;49.758;6.120;2023-07-16T03:33:04;4.10;;;1.97;;
12910;SDS011;6523;49.758;6.120;2023-07-16T03:35:30;5.00;;;1.90;;
12910;SDS011;6523;49.758;6.120;2023-07-16T03:37:55;6.73;;;2.50;;
12910;SDS011;6523;49.758;6.120;2023-07-16T03:40:25;6.47;;;2.60;;
12910;SDS011;6523;49.758;6.120;2023-07-16T03:42:51;6.30;;;2.47;;
12910;SDS011;6523;49.758;6.120;2023-07-16T03:45:17;7.07;;;2.73;;
12910;SDS011;6523;49.758;6.120;2023-07-16T03:47:42;5.73;;;2.40;;
12910;SDS011;6523;49.758;6.120;2023-07-16T03:50:08;7.53;;;2.53;;
12910;SDS011;6523;49.758;6.120;2023-07-16T03:52:34;4.73;;;2.60;;
12910;SDS011;6523;49.758;6.120;2023-07-16T03:55:00;4.87;;;2.63;;
12910;SDS011;6523;49.758;6.120;2023-07-16T03:57:27;8.63;;;2.60;;
12910;SDS011;6523;49.758;6.120;2023-07-16T03:59:53;4.73;;;2.30;;
12910;SDS011;6523;49.758;6.120;2023-07-16T04:02:18;7.33;;;2.60;;
12910;SDS011;6523;49.758;6.120;2023-07-16T04:04:44;4.87;;;2.40;;
12910;SDS011;6523;49.758;6.120;2023-07-16T04:07:09;8.90;;;3.17;;
12910;SDS011;6523;49.758;6.120;2023-07-16T04:09:38;6.97;;;2.70;;
12910;SDS011;6523;49.758;6.120;2023-07-16T04:12:04;6.47;;;2.80;;
12910;SDS011;6523;49.758;6.120;2023-07-16T04:14:31;4.53;;;2.50;;
12910;SDS011;6523;49.758;6.120;2023-07-16T04:16:57;5.73;;;3.20;;
12910;SDS011;6523;49.758;6.120;2023-07-16T04:19:22;7.30;;;3.20;;
12910;SDS011;6523;49.758;6.120;2023-07-16T04:21:48;6.43;;;3.43;;
12910;SDS011;6523;49.758;6.120;2023-07-16T04:24:13;6.60;;;2.70;;
12910;SDS011;6523;49.758;6.120;2023-07-16T04:26:39;6.77;;;2.80;;
12910;SDS011;6523;49.758;6.120;2023-07-16T04:29:04;5.33;;;2.77;;
12910;SDS011;6523;49.758;6.120;2023-07-16T04:31:30;6.13;;;2.63;;
12910;SDS011;6523;49.758;6.120;2023-07-16T04:33:55;5.50;;;2.70;;
12910;SDS011;6523;49.758;6.120;2023-07-16T04:36:21;6.33;;;3.10;;
12910;SDS011;6523;49.758;6.120;2023-07-16T04:38:47;3.13;;;2.60;;
12910;SDS011;6523;49.758;6.120;2023-07-16T04:41:12;5.40;;;2.80;;
12910;SDS011;6523;49.758;6.120;2023-07-16T04:43:38;4.60;;;2.97;;
12910;SDS011;6523;49.758;6.120;2023-07-16T04:46:04;10.03;;;2.83;;
12910;SDS011;6523;49.758;6.120;2023-07-16T04:48:30;6.77;;;2.90;;
12910;SDS011;6523;49.758;6.120;2023-07-16T04:50:55;4.67;;;2.93;;
12910;SDS011;6523;49.758;6.120;2023-07-16T04:53:22;7.07;;;2.90;;
12910;SDS011;6523;49.758;6.120;2023-07-16T04:55:47;5.87;;;2.80;;
12910;SDS011;6523;49.758;6.120;2023-07-16T04:58:14;10.73;;;2.90;;
12910;SDS011;6523;49.758;6.120;2023-07-16T05:00:40;5.93;;;2.73;;
12910;SDS011;6523;49.758;6.120;2023-07-16T05:03:06;4.57;;;2.47;;
12910;SDS011;6523;49.758;6.120;2023-07-16T05:05:31;5.57;;;3.27;;
12910;SDS011;6523;49.758;6.120;2023-07-16T05:07:57;4.00;;;2.90;;
12910;SDS011;6523;49.758;6.120;2023-07-16T05:10:22;8.03;;;3.03;;
12910;SDS011;6523;49.758;6.120;2023-07-16T05:12:48;6.93;;;3.23;;
12910;SDS011;6523;49.758;6.120;2023-07-16T05:15:13;6.43;;;3.10;;
12910;SDS011;6523;49.758;6.120;2023-07-16T05:17:39;7.30;;;3.20;;
12910;SDS011;6523;49.758;6.120;2023-07-16T05:20:05;7.60;;;3.33;;
12910;SDS011;6523;49.758;6.120;2023-07-16T05:22:32;6.00;;;3.20;;
12910;SDS011;6523;49.758;6.120;2023-07-16T05:24:58;8.10;;;3.40;;
12910;SDS011;6523;49.758;6.120;2023-07-16T05:27:23;6.87;;;2.93;;
12910;SDS011;6523;49.758;6.120;2023-07-16T05:29:49;6.83;;;3.73;;
12910;SDS011;6523;49.758;6.120;2023-07-16T05:32:15;8.77;;;2.80;;
12910;SDS011;6523;49.758;6.120;2023-07-16T05:34:40;6.60;;;3.10;;
12910;SDS011;6523;49.758;6.120;2023-07-16T05:37:06;9.07;;;3.57;;
12910;SDS011;6523;49.758;6.120;2023-07-16T05:39:31;6.97;;;3.47;;
12910;SDS011;6523;49.758;6.120;2023-07-16T05:41:57;7.87;;;3.50;;
12910;SDS011;6523;49.758;6.120;2023-07-16T05:44:22;5.90;;;3.03;;
12910;SDS011;6523;49.758;6.120;2023-07-16T05:46:48;6.23;;;3.50;;
12910;SDS011;6523;49.758;6.120;2023-07-16T05:49:14;7.93;;;3.83;;
12910;SDS011;6523;49.758;6.120;2023-07-16T05:51:39;8.93;;;3.63;;
12910;SDS011;6523;49.758;6.120;2023-07-16T05:54:05;5.10;;;3.40;;
12910;SDS011;6523;49.758;6.120;2023-07-16T05:56:31;8.50;;;3.87;;
12910;SDS011;6523;49.758;6.120;2023-07-16T05:58:57;7.47;;;3.70;;
12910;SDS011;6523;49.758;6.120;2023-07-16T06:01:22;7.40;;;4.37;;
12910;SDS011;6523;49.758;6.120;2023-07-16T06:03:48;8.50;;;4.30;;
12910;SDS011;6523;49.758;6.120;2023-07-16T06:06:13;7.57;;;4.20;;
12910;SDS011;6523;49.758;6.120;2023-07-16T06:08:39;8.00;;;4.07;;
12910;SDS011;6523;49.758;6.120;2023-07-16T06:11:04;10.10;;;4.63;;
12910;SDS011;6523;49.758;6.120;2023-07-16T06:13:30;7.33;;;4.40;;
12910;SDS011;6523;49.758;6.120;2023-07-16T06:15:56;12.47;;;4.70;;
12910;SDS011;6523;49.758;6.120;2023-07-16T06:18:22;11.47;;;4.20;;
12910;SDS011;6523;49.758;6.120;2023-07-16T06:20:47;9.00;;;4.27;;
12910;SDS011;6523;49.758;6.120;2023-07-16T06:23:13;8.90;;;5.07;;
12910;SDS011;6523;49.758;6.120;2023-07-16T06:25:41;10.60;;;5.57;;
12910;SDS011;6523;49.758;6.120;2023-07-16T06:28:09;12.47;;;5.07;;
12910;SDS011;6523;49.758;6.120;2023-07-16T06:30:35;9.07;;;5.20;;
12910;SDS011;6523;49.758;6.120;2023-07-16T06:33:01;6.90;;;4.60;;
12910;SDS011;6523;49.758;6.120;2023-07-16T06:35:27;9.37;;;5.57;;
12910;SDS011;6523;49.758;6.120;2023-07-16T06:37:53;13.20;;;5.47;;
12910;SDS011;6523;49.758;6.120;2023-07-16T06:40:18;8.83;;;5.10;;
12910;SDS011;6523;49.758;6.120;2023-07-16T06:42:44;11.00;;;5.13;;
12910;SDS011;6523;49.758;6.120;2023-07-16T06:45:09;11.60;;;5.03;;
12910;SDS011;6523;49.758;6.120;2023-07-16T06:47:35;9.20;;;5.13;;
12910;SDS011;6523;49.758;6.120;2023-07-16T06:50:00;8.27;;;5.23;;
12910;SDS011;6523;49.758;6.120;2023-07-16T06:52:26;10.30;;;5.17;;
12910;SDS011;6523;49.758;6.120;2023-07-16T06:54:53;9.80;;;4.63;;
12910;SDS011;6523;49.758;6.120;2023-07-16T06:57:19;8.53;;;4.30;;
12910;SDS011;6523;49.758;6.120;2023-07-16T06:59:44;9.10;;;5.07;;
12910;SDS011;6523;49.758;6.120;2023-07-16T07:02:10;12.13;;;4.33;;
12910;SDS011;6523;49.758;6.120;2023-07-16T07:04:37;9.60;;;4.70;;
12910;SDS011;6523;49.758;6.120;2023-07-16T07:07:02;12.93;;;5.10;;
12910;SDS011;6523;49.758;6.120;2023-07-16T07:09:28;11.73;;;4.90;;
12910;SDS011;6523;49.758;6.120;2023-07-16T07:11:54;7.43;;;4.10;;
12910;SDS011;6523;49.758;6.120;2023-07-16T07:14:19;7.90;;;4.60;;
12910;SDS011;6523;49.758;6.120;2023-07-16T07:16:45;8.13;;;4.90;;
12910;SDS011;6523;49.758;6.120;2023-07-16T07:19:10;11.30;;;5.13;;
12910;SDS011;6523;49.758;6.120;2023-07-16T07:21:36;10.27;;;5.00;;
12910;SDS011;6523;49.758;6.120;2023-07-16T07:24:01;8.17;;;5.07;;
12910;SDS011;6523;49.758;6.120;2023-07-16T07:26:27;8.13;;;4.37;;
12910;SDS011;6523;49.758;6.120;2023-07-16T07:28:53;9.43;;;4.37;;
12910;SDS011;6523;49.758;6.120;2023-07-16T07:31:18;7.17;;;4.57;;
12910;SDS011;6523;49.758;6.120;2023-07-16T07:33:44;9.77;;;4.60;;
12910;SDS011;6523;49.758;6.120;2023-07-16T07:36:09;6.57;;;4.33;;
12910;SDS011;6523;49.758;6.120;2023-07-16T07:38:35;14.20;;;5.00;;
12910;SDS011;6523;49.758;6.120;2023-07-16T07:41:00;7.13;;;4.53;;
12910;SDS011;6523;49.758;6.120;2023-07-16T07:43:26;8.87;;;4.80;;
12910;SDS011;6523;49.758;6.120;2023-07-16T07:45:51;7.40;;;5.53;;
12910;SDS011;6523;49.758;6.120;2023-07-16T07:48:17;8.57;;;4.87;;
12910;SDS011;6523;49.758;6.120;2023-07-16T07:50:43;8.83;;;5.00;;
12910;SDS011;6523;49.758;6.120;2023-07-16T07:53:10;8.43;;;5.27;;
12910;SDS011;6523;49.758;6.120;2023-07-16T07:55:36;8.23;;;5.37;;
12910;SDS011;6523;49.758;6.120;2023-07-16T07:58:01;6.37;;;4.33;;
12910;SDS011;6523;49.758;6.120;2023-07-16T08:00:27;11.23;;;5.17;;
12910;SDS011;6523;49.758;6.120;2023-07-16T08:02:53;8.67;;;5.30;;
12910;SDS011;6523;49.758;6.120;2023-07-16T08:05:18;7.73;;;5.17;;
12910;SDS011;6523;49.758;6.120;2023-07-16T08:07:44;10.80;;;5.07;;
12910;SDS011;6523;49.758;6.120;2023-07-16T08:10:10;6.73;;;4.83;;
12910;SDS011;6523;49.758;6.120;2023-07-16T08:12:35;8.70;;;4.87;;
12910;SDS011;6523;49.758;6.120;2023-07-16T08:15:01;10.43;;;5.47;;
12910;SDS011;6523;49.758;6.120;2023-07-16T08:17:27;9.43;;;5.03;;
12910;SDS011;6523;49.758;6.120;2023-07-16T08:19:52;9.63;;;5.13;;
12910;SDS011;6523;49.758;6.120;2023-07-16T08:22:18;7.47;;;5.20;;
12910;SDS011;6523;49.758;6.120;2023-07-16T08:24:43;9.43;;;5.53;;
12910;SDS011;6523;49.758;6.120;2023-07-16T08:27:09;8.60;;;5.53;;
12910;SDS011;6523;49.758;6.120;2023-07-16T08:29:37;7.73;;;5.60;;
12910;SDS011;6523;49.758;6.120;2023-07-16T08:32:03;8.23;;;5.03;;
12910;SDS011;6523;49.758;6.120;2023-07-16T08:34:29;7.13;;;5.20;;
12910;SDS011;6523;49.758;6.120;2023-07-16T08:36:54;9.57;;;5.27;;
12910;SDS011;6523;49.758;6.120;2023-07-16T08:39:20;8.20;;;5.37;;
12910;SDS011;6523;49.758;6.120;2023-07-16T08:41:45;7.57;;;5.70;;
12910;SDS011;6523;49.758;6.120;2023-07-16T08:44:11;6.87;;;5.23;;
12910;SDS011;6523;49.758;6.120;2023-07-16T08:46:38;8.07;;;5.33;;
12910;SDS011;6523;49.758;6.120;2023-07-16T08:49:05;9.17;;;5.83;;
12910;SDS011;6523;49.758;6.120;2023-07-16T08:51:32;9.57;;;5.47;;
12910;SDS011;6523;49.758;6.120;2023-07-16T08:54:00;9.47;;;5.80;;
12910;SDS011;6523;49.758;6.120;2023-07-16T08:56:26;9.43;;;5.90;;
12910;SDS011;6523;49.758;6.120;2023-07-16T08:58:52;6.63;;;5.63;;
12910;SDS011;6523;49.758;6.120;2023-07-16T09:01:21;10.47;;;5.73;;
12910;SDS011;6523;49.758;6.120;2023-07-16T09:03:47;9.13;;;6.10;;
12910;SDS011;6523;49.758;6.120;2023-07-16T09:06:12;7.67;;;5.43;;
12910;SDS011;6523;49.758;6.120;2023-07-16T09:08:38;7.73;;;5.63;;
12910;SDS011;6523;49.758;6.120;2023-07-16T09:11:04;14.90;;;6.57;;
12910;SDS011;6523;49.758;6.120;2023-07-16T09:13:30;9.03;;;5.97;;
12910;SDS011;6523;49.758;6.120;2023-07-16T09:15:56;11.20;;;5.80;;
12910;SDS011;6523;49.758;6.120;2023-07-16T09:18:23;8.43;;;5.80;;
12910;SDS011;6523;49.758;6.120;2023-07-16T09:20:56;11.27;;;7.10;;
12910;SDS011;6523;49.758;6.120;2023-07-16T09:23:23;9.00;;;6.07;;
12910;SDS011;6523;49.758;6.120;2023-07-16T09:25:51;7.37;;;5.67;;
12910;SDS011;6523;49.758;6.120;2023-07-16T09:28:18;7.50;;;5.53;;
12910;SDS011;6523;49.758;6.120;2023-07-16T09:30:43;12.60;;;6.30;;
12910;SDS011;6523;49.758;6.120;2023-07-16T09:33:10;9.33;;;6.13;;
12910;SDS011;6523;49.758;6.120;2023-07-16T09:35:37;8.43;;;5.70;;
12910;SDS011;6523;49.758;6.120;2023-07-16T09:38:03;12.70;;;6.00;;
12910;SDS011;6523;49.758;6.120;2023-07-16T09:40:29;9.50;;;5.43;;
12910;SDS011;6523;49.758;6.120;2023-07-16T09:42:54;8.20;;;5.37;;
12910;SDS011;6523;49.758;6.120;2023-07-16T09:45:21;5.57;;;4.93;;
12910;SDS011;6523;49.758;6.120;2023-07-16T09:47:46;7.27;;;4.87;;
12910;SDS011;6523;49.758;6.120;2023-07-16T09:50:12;9.53;;;5.77;;
12910;SDS011;6523;49.758;6.120;2023-07-16T09:52:38;8.43;;;5.03;;
12910;SDS011;6523;49.758;6.120;2023-07-16T09:55:05;8.93;;;5.43;;
12910;SDS011;6523;49.758;6.120;2023-07-16T09:57:37;8.77;;;5.57;;
12910;SDS011;6523;49.758;6.120;2023-07-16T10:00:06;9.07;;;5.13;;
12910;SDS011;6523;49.758;6.120;2023-07-16T10:02:37;9.30;;;4.87;;
12910;SDS011;6523;49.758;6.120;2023-07-16T10:05:13;12.13;;;5.00;;
12910;SDS011;6523;49.758;6.120;2023-07-16T10:07:43;7.97;;;4.53;;
12910;SDS011;6523;49.758;6.120;2023-07-16T10:10:16;8.43;;;5.10;;
12910;SDS011;6523;49.758;6.120;2023-07-16T10:12:42;7.33;;;5.13;;
12910;SDS011;6523;49.758;6.120;2023-07-16T10:15:26;7.40;;;4.90;;
12910;SDS011;6523;49.758;6.120;2023-07-16T10:17:52;7.67;;;5.00;;
12910;SDS011;6523;49.758;6.120;2023-07-16T10:20:27;6.43;;;4.30;;
12910;SDS011;6523;49.758;6.120;2023-07-16T10:23:13;5.33;;;4.27;;
12910;SDS011;6523;49.758;6.120;2023-07-16T10:25:40;6.73;;;4.37;;
12910;SDS011;6523;49.758;6.120;2023-07-16T10:28:22;7.53;;;4.50;;
12910;SDS011;6523;49.758;6.120;2023-07-16T10:30:49;7.87;;;4.83;;
12910;SDS011;6523;49.758;6.120;2023-07-16T10:33:15;4.93;;;4.43;;
12910;SDS011;6523;49.758;6.120;2023-07-16T10:35:45;7.40;;;5.00;;
12910;SDS011;6523;49.758;6.120;2023-07-16T10:38:11;5.93;;;4.30;;
12910;SDS011;6523;49.758;6.120;2023-07-16T10:40:43;6.57;;;5.13;;
12910;SDS011;6523;49.758;6.120;2023-07-16T10:43:10;7.63;;;4.67;;
12910;SDS011;6523;49.758;6.120;2023-07-16T10:45:36;6.93;;;4.33;;
12910;SDS011;6523;49.758;6.120;2023-07-16T10:48:02;8.20;;;4.50;;
12910;SDS011;6523;49.758;6.120;2023-07-16T10:50:28;7.27;;;4.33;;
12910;SDS011;6523;49.758;6.120;2023-07-16T10:52:54;6.10;;;4.23;;
12910;SDS011;6523;49.758;6.120;2023-07-16T10:55:20;7.93;;;4.47;;
12910;SDS011;6523;49.758;6.120;2023-07-16T10:57:47;5.10;;;3.70;;
12910;SDS011;6523;49.758;6.120;2023-07-16T11:00:18;8.60;;;4.00;;
12910;SDS011;6523;49.758;6.120;2023-07-16T11:02:45;5.70;;;3.47;;
12910;SDS011;6523;49.758;6.120;2023-07-16T11:05:12;7.30;;;3.63;;
12910;SDS011;6523;49.758;6.120;2023-07-16T11:07:42;4.93;;;4.00;;
12910;SDS011;6523;49.758;6.120;2023-07-16T11:10:09;6.93;;;3.70;;
12910;SDS011;6523;49.758;6.120;2023-07-16T11:12:34;4.27;;;3.57;;
12910;SDS011;6523;49.758;6.120;2023-07-16T11:15:00;6.40;;;4.20;;
12910;SDS011;6523;49.758;6.120;2023-07-16T11:17:25;6.23;;;4.03;;
12910;SDS011;6523;49.758;6.120;2023-07-16T11:19:52;6.77;;;3.80;;
12910;SDS011;6523;49.758;6.120;2023-07-16T11:22:19;4.40;;;4.00;;
12910;SDS011;6523;49.758;6.120;2023-07-16T11:24:45;4.63;;;3.73;;
12910;SDS011;6523;49.758;6.120;2023-07-16T11:27:16;5.70;;;3.50;;
12910;SDS011;6523;49.758;6.120;2023-07-16T11:29:47;5.57;;;3.70;;
12910;SDS011;6523;49.758;6.120;2023-07-16T11:32:14;7.40;;;4.33;;
12910;SDS011;6523;49.758;6.120;2023-07-16T11:34:51;6.30;;;3.97;;
12910;SDS011;6523;49.758;6.120;2023-07-16T11:37:18;6.77;;;4.17;;
12910;SDS011;6523;49.758;6.120;2023-07-16T11:39:45;7.50;;;4.47;;
12910;SDS011;6523;49.758;6.120;2023-07-16T11:42:11;7.40;;;3.70;;
12910;SDS011;6523;49.758;6.120;2023-07-16T11:44:37;5.27;;;4.17;;
12910;SDS011;6523;49.758;6.120;2023-07-16T11:47:03;6.17;;;4.03;;
12910;SDS011;6523;49.758;6.120;2023-07-16T11:49:29;8.80;;;4.10;;
12910;SDS011;6523;49.758;6.120;2023-07-16T11:51:56;4.10;;;3.70;;
12910;SDS011;6523;49.758;6.120;2023-07-16T11:54:22;7.23;;;4.30;;
12910;SDS011;6523;49.758;6.120;2023-07-16T11:56:47;6.27;;;4.03;;
12910;SDS011;6523;49.758;6.120;2023-07-16T11:59:13;7.13;;;4.03;;
12910;SDS011;6523;49.758;6.120;2023-07-16T12:01:39;7.00;;;4.47;;
12910;SDS011;6523;49.758;6.120;2023-07-16T12:04:04;4.93;;;3.77;;
12910;SDS011;6523;49.758;6.120;2023-07-16T12:06:30;4.77;;;3.87;;
12910;SDS011;6523;49.758;6.120;2023-07-16T12:08:55;4.40;;;3.80;;
12910;SDS011;6523;49.758;6.120;2023-07-16T12:11:21;6.23;;;4.10;;
12910;SDS011;6523;49.758;6.120;2023-07-16T12:13:47;5.53;;;3.70;;
12910;SDS011;6523;49.758;6.120;2023-07-16T12:16:12;6.93;;;4.40;;
12910;SDS011;6523;49.758;6.120;2023-07-16T12:18:38;7.17;;;3.77;;
12910;SDS011;6523;49.758;6.120;2023-07-16T12:21:04;5.17;;;3.87;;
12910;SDS011;6523;49.758;6.120;2023-07-16T12:23:31;6.90;;;4.20;;
12910;SDS011;6523;49.758;6.120;2023-07-16T12:25:56;5.47;;;4.00;;
12910;SDS011;6523;49.758;6.120;2023-07-16T12:28:22;7.40;;;3.90;;
12910;SDS011;6523;49.758;6.120;2023-07-16T12:30:48;5.47;;;4.07;;
12910;SDS011;6523;49.758;6.120;2023-07-16T12:33:13;6.70;;;4.17;;
12910;SDS011;6523;49.758;6.120;2023-07-16T12:35:39;6.60;;;4.23;;
12910;SDS011;6523;49.758;6.120;2023-07-16T12:38:04;5.30;;;3.80;;
12910;SDS011;6523;49.758;6.120;2023-07-16T12:40:30;7.40;;;4.13;;
12910;SDS011;6523;49.758;6.120;2023-07-16T12:42:56;6.30;;;3.87;;
12910;SDS011;6523;49.758;6.120;2023-07-16T12:45:21;4.53;;;3.87;;
12910;SDS011;6523;49.758;6.120;2023-07-16T12:47:47;7.43;;;4.23;;
12910;SDS011;6523;49.758;6.120;2023-07-16T12:50:12;5.00;;;3.40;;
12910;SDS011;6523;49.758;6.120;2023-07-16T12:52:38;7.77;;;4.00;;
12910;SDS011;6523;49.758;6.120;2023-07-16T12:55:03;8.07;;;3.93;;
12910;SDS011;6523;49.758;6.120;2023-07-16T12:57:29;6.53;;;4.47;;
12910;SDS011;6523;49.758;6.120;2023-07-16T12:59:55;7.20;;;4.30;;
12910;SDS011;6523;49.758;6.120;2023-07-16T13:02:20;5.03;;;3.63;;
12910;SDS011;6523;49.758;6.120;2023-07-16T13:04:46;5.17;;;3.50;;
12910;SDS011;6523;49.758;6.120;2023-07-16T13:07:11;6.17;;;3.90;;
12910;SDS011;6523;49.758;6.120;2023-07-16T13:09:37;5.97;;;4.40;;
12910;SDS011;6523;49.758;6.120;2023-07-16T13:12:03;7.60;;;4.70;;
12910;SDS011;6523;49.758;6.120;2023-07-16T13:14:29;4.50;;;3.67;;
12910;SDS011;6523;49.758;6.120;2023-07-16T13:16:54;6.27;;;4.30;;
12910;SDS011;6523;49.758;6.120;2023-07-16T13:19:20;6.77;;;4.07;;
12910;SDS011;6523;49.758;6.120;2023-07-16T13:21:45;5.13;;;3.80;;
12910;SDS011;6523;49.758;6.120;2023-07-16T13:24:11;6.33;;;3.93;;
12910;SDS011;6523;49.758;6.120;2023-07-16T13:26:36;4.73;;;4.20;;
12910;SDS011;6523;49.758;6.120;2023-07-16T13:29:02;5.80;;;4.03;;
12910;SDS011;6523;49.758;6.120;2023-07-16T13:31:28;6.90;;;4.40;;
12910;SDS011;6523;49.758;6.120;2023-07-16T13:33:53;6.07;;;4.13;;
12910;SDS011;6523;49.758;6.120;2023-07-16T13:36:19;6.93;;;4.10;;
12910;SDS011;6523;49.758;6.120;2023-07-16T13:38:44;5.17;;;3.60;;
12910;SDS011;6523;49.758;6.120;2023-07-16T13:41:10;6.47;;;4.47;;
12910;SDS011;6523;49.758;6.120;2023-07-16T13:43:35;5.30;;;4.13;;
12910;SDS011;6523;49.758;6.120;2023-07-16T13:46:01;6.73;;;4.33;;
12910;SDS011;6523;49.758;6.120;2023-07-16T13:48:27;5.67;;;4.53;;
12910;SDS011;6523;49.758;6.120;2023-07-16T13:50:52;6.10;;;4.20;;
12910;SDS011;6523;49.758;6.120;2023-07-16T13:53:18;5.77;;;4.53;;
12910;SDS011;6523;49.758;6.120;2023-07-16T13:55:44;6.13;;;4.83;;
12910;SDS011;6523;49.758;6.120;2023-07-16T13:58:09;6.13;;;4.07;;
12910;SDS011;6523;49.758;6.120;2023-07-16T14:00:35;7.60;;;4.23;;
12910;SDS011;6523;49.758;6.120;2023-07-16T14:03:01;4.70;;;3.70;;
12910;SDS011;6523;49.758;6.120;2023-07-16T14:05:27;6.67;;;4.03;;
12910;SDS011;6523;49.758;6.120;2023-07-16T14:07:52;6.33;;;4.10;;
12910;SDS011;6523;49.758;6.120;2023-07-16T14:10:18;7.20;;;4.50;;
12910;SDS011;6523;49.758;6.120;2023-07-16T14:12:44;5.70;;;4.53;;
12910;SDS011;6523;49.758;6.120;2023-07-16T14:15:10;5.90;;;4.40;;
12910;SDS011;6523;49.758;6.120;2023-07-16T14:17:35;5.87;;;4.00;;
12910;SDS011;6523;49.758;6.120;2023-07-16T14:20:01;5.73;;;4.17;;
12910;SDS011;6523;49.758;6.120;2023-07-16T14:22:26;6.23;;;4.20;;
12910;SDS011;6523;49.758;6.120;2023-07-16T14:24:53;5.13;;;4.10;;
12910;SDS011;6523;49.758;6.120;2023-07-16T14:27:18;6.43;;;4.20;;
12910;SDS011;6523;49.758;6.120;2023-07-16T14:29:45;5.10;;;3.90;;
12910;SDS011;6523;49.758;6.120;2023-07-16T14:32:10;8.00;;;3.97;;
12910;SDS011;6523;49.758;6.120;2023-07-16T14:34:36;5.97;;;4.27;;
12910;SDS011;6523;49.758;6.120;2023-07-16T14:37:02;5.27;;;3.37;;
12910;SDS011;6523;49.758;6.120;2023-07-16T14:39:27;6.20;;;3.90;;
12910;SDS011;6523;49.758;6.120;2023-07-16T14:41:54;5.40;;;4.13;;
12910;SDS011;6523;49.758;6.120;2023-07-16T14:44:19;5.43;;;3.70;;
12910;SDS011;6523;49.758;6.120;2023-07-16T14:46:45;4.90;;;3.67;;
12910;SDS011;6523;49.758;6.120;2023-07-16T14:49:11;5.23;;;3.60;;
12910;SDS011;6523;49.758;6.120;2023-07-16T14:51:37;4.70;;;3.30;;
12910;SDS011;6523;49.758;6.120;2023-07-16T14:54:05;5.13;;;3.40;;
12910;SDS011;6523;49.758;6.120;2023-07-16T14:56:32;7.80;;;4.27;;
12910;SDS011;6523;49.758;6.120;2023-07-16T14:58:57;4.70;;;3.90;;
12910;SDS011;6523;49.758;6.120;2023-07-16T15:01:23;6.37;;;4.07;;